Time,TemperatureF,DewpointF,PressureIn,WindDirection,WindDirectionDegrees,WindSpeedMPH,WindSpeedGustMPH,Humidity,HourlyPrecipIn,Conditions,Clouds,dailyrainin,SoftwareType,DateUTC
2013-04-30 00:07:00,63.9,63.3,29.71,ENE,67,0.0,-999.0,98,-99.99,,,0.00,Acu-Link.com,2013-04-30 05:07:00,
2013-04-30 00:23:00,63.9,63.3,29.71,ENE,67,0.0,-999.0,98,-99.99,,,0.00,Acu-Link.com,2013-04-30 05:23:00,
2013-04-30 00:38:00,63.9,63.3,29.71,ENE,67,0.0,-999.0,98,-99.99,,,0.00,Acu-Link.com,2013-04-30 05:38:00,
2013-04-30 00:53:00,63.7,63.1,29.71,ENE,67,0.0,-999.0,98,-99.99,,,0.00,Acu-Link.com,2013-04-30 05:53:00,
2013-04-30 01:08:00,63.5,62.9,29.69,NE,45,0.0,-999.0,98,-99.99,,,0.00,Acu-Link.com,2013-04-30 06:08:00,
2013-04-30 01:24:00,63.3,62.7,29.70,NE,45,0.0,-999.0,98,-99.99,,,0.00,Acu-Link.com,2013-04-30 06:24:00,
2013-04-30 01:39:00,63.1,62.6,29.69,NE,45,1.6,-999.0,98,-99.99,,,0.00,Acu-Link.com,2013-04-30 06:39:00,
2013-04-30 01:54:00,62.8,62.2,29.69,NE,45,0.0,-999.0,98,-99.99,,,0.00,Acu-Link.com,2013-04-30 06:54:00,
2013-04-30 02:10:00,62.8,62.2,29.69,NE,45,0.0,-999.0,98,-99.99,,,0.00,Acu-Link.com,2013-04-30 07:10:00,
2013-04-30 02:25:00,62.8,62.2,29.69,NE,45,0.0,-999.0,98,-99.99,,,0.00,Acu-Link.com,2013-04-30 07:25:00,
2013-04-30 02:40:00,62.6,62.0,29.69,NE,45,1.1,-999.0,98,-99.99,,,0.00,Acu-Link.com,2013-04-30 07:40:00,
2013-04-30 02:55:00,62.6,62.0,29.68,NE,45,1.1,-999.0,98,-99.99,,,0.00,Acu-Link.com,2013-04-30 07:55:00,
2013-04-30 03:10:00,63.7,63.1,29.68,East,90,1.1,-999.0,98,-99.99,,,0.00,Acu-Link.com,2013-04-30 08:10:00,
2013-04-30 03:26:00,64.4,63.8,29.68,East,90,0.0,-999.0,98,-99.99,,,0.00,Acu-Link.com,2013-04-30 08:26:00,
2013-04-30 03:41:00,64.8,64.2,29.69,NNE,22,0.0,-999.0,98,-99.99,,,0.00,Acu-Link.com,2013-04-30 08:41:00,
2013-04-30 03:56:00,65.3,64.7,29.68,East,90,0.0,-999.0,98,-99.99,,,0.00,Acu-Link.com,2013-04-30 08:56:00,
2013-04-30 04:11:00,65.5,64.9,29.68,East,90,0.0,-999.0,98,-99.99,,,0.00,Acu-Link.com,2013-04-30 09:11:00,
2013-04-30 04:26:00,65.8,65.3,29.67,NE,45,0.0,-999.0,98,-99.99,,,0.00,Acu-Link.com,2013-04-30 09:26:00,
2013-04-30 04:41:00,66.0,65.4,29.68,NE,45,1.1,-999.0,98,-99.99,,,0.00,Acu-Link.com,2013-04-30 09:41:00,
2013-04-30 04:57:00,66.2,65.6,29.67,ENE,67,0.0,-999.0,98,-99.99,,,0.00,Acu-Link.com,2013-04-30 09:57:00,
2013-04-30 05:12:00,66.4,65.8,29.67,ENE,67,0.0,-999.0,98,-99.99,,,0.00,Acu-Link.com,2013-04-30 10:12:00,
2013-04-30 05:27:00,66.6,66.0,29.67,ESE,112,0.0,-999.0,98,-99.99,,,0.00,Acu-Link.com,2013-04-30 10:27:00,
2013-04-30 05:43:00,66.6,66.0,29.67,East,90,0.0,-999.0,98,-99.99,,,0.00,Acu-Link.com,2013-04-30 10:43:00,
2013-04-30 05:58:00,66.7,66.2,29.68,ENE,67,0.0,-999.0,98,-99.99,,,0.00,Acu-Link.com,2013-04-30 10:58:00,
2013-04-30 06:13:00,66.7,66.2,29.69,ENE,67,1.6,-999.0,98,-99.99,,,0.00,Acu-Link.com,2013-04-30 11:13:00,
2013-04-30 06:28:00,66.9,66.3,29.69,ENE,67,2.2,-999.0,98,-99.99,,,0.00,Acu-Link.com,2013-04-30 11:28:00,
2013-04-30 06:44:00,66.9,66.3,29.70,NNE,22,1.6,-999.0,98,-99.99,,,0.00,Acu-Link.com,2013-04-30 11:44:00,
2013-04-30 06:59:00,67.1,66.5,29.70,ENE,67,2.7,-999.0,98,-99.99,,,0.00,Acu-Link.com,2013-04-30 11:59:00,
2013-04-30 07:14:00,67.1,66.5,29.69,ENE,67,1.1,-999.0,98,-99.99,,,0.00,Acu-Link.com,2013-04-30 12:14:00,
2013-04-30 07:30:00,67.5,66.9,29.70,ENE,67,2.2,-999.0,98,-99.99,,,0.00,Acu-Link.com,2013-04-30 12:30:00,
2013-04-30 07:45:00,67.5,66.9,29.69,ENE,67,2.2,-999.0,98,-99.99,,,0.00,Acu-Link.com,2013-04-30 12:45:00,
2013-04-30 08:00:00,68.0,67.4,29.69,SE,135,1.1,-999.0,98,-99.99,,,0.00,Acu-Link.com,2013-04-30 13:00:00,
2013-04-30 08:16:00,68.0,67.4,29.70,NE,45,1.6,-999.0,98,-99.99,,,0.00,Acu-Link.com,2013-04-30 13:16:00,
2013-04-30 08:31:00,68.4,67.8,29.70,ENE,67,2.2,-999.0,98,-99.99,,,0.00,Acu-Link.com,2013-04-30 13:31:00,
2013-04-30 08:46:00,68.9,68.3,29.69,ENE,67,2.7,-999.0,98,-99.99,,,0.00,Acu-Link.com,2013-04-30 13:46:00,
2013-04-30 09:01:00,69.1,68.5,29.70,East,90,3.1,-999.0,98,-99.99,,,0.00,Acu-Link.com,2013-04-30 14:01:00,
2013-04-30 09:17:00,69.3,68.7,29.71,NE,45,2.7,-999.0,98,-99.99,,,0.00,Acu-Link.com,2013-04-30 14:17:00,
2013-04-30 09:32:00,69.8,69.2,29.71,ESE,112,4.7,-999.0,98,-99.99,,,0.00,Acu-Link.com,2013-04-30 14:32:00,
2013-04-30 09:47:00,70.3,69.7,29.71,East,90,3.1,-999.0,98,-99.99,,,0.00,Acu-Link.com,2013-04-30 14:47:00,
2013-04-30 10:03:00,70.9,70.3,29.71,East,90,3.1,-999.0,98,-99.99,,,0.00,Acu-Link.com,2013-04-30 15:03:00,
2013-04-30 10:18:00,71.4,70.8,29.70,East,90,5.8,-999.0,98,-99.99,,,0.00,Acu-Link.com,2013-04-30 15:18:00,
2013-04-30 10:33:00,72.1,71.5,29.70,SE,135,2.2,-999.0,98,-99.99,,,0.00,Acu-Link.com,2013-04-30 15:33:00,
2013-04-30 10:48:00,72.5,71.9,29.70,East,90,3.1,-999.0,98,-99.99,,,0.00,Acu-Link.com,2013-04-30 15:48:00,
2013-04-30 11:04:00,73.4,72.8,29.70,NNE,22,3.8,-999.0,98,-99.99,,,0.00,Acu-Link.com,2013-04-30 16:04:00,
2013-04-30 11:19:00,74.3,73.7,29.71,ESE,112,1.6,-999.0,98,-99.99,,,0.00,Acu-Link.com,2013-04-30 16:19:00,
2013-04-30 11:34:00,74.3,73.7,29.72,ESE,112,3.8,-999.0,98,-99.99,,,0.00,Acu-Link.com,2013-04-30 16:34:00,
2013-04-30 11:49:00,75.0,74.4,29.71,NE,45,1.6,-999.0,98,-99.99,,,0.00,Acu-Link.com,2013-04-30 16:49:00,
2013-04-30 12:04:00,75.6,75.0,29.71,ESE,112,3.1,-999.0,98,-99.99,,,0.00,Acu-Link.com,2013-04-30 17:04:00,
2013-04-30 12:20:00,75.7,75.1,29.69,East,90,4.7,-999.0,98,-99.99,,,0.00,Acu-Link.com,2013-04-30 17:20:00,
2013-04-30 12:35:00,75.2,74.6,29.69,ESE,112,4.3,-999.0,98,-99.99,,,0.00,Acu-Link.com,2013-04-30 17:35:00,
2013-04-30 12:50:00,75.2,74.6,29.68,ESE,112,2.2,-999.0,98,-99.99,,,0.00,Acu-Link.com,2013-04-30 17:50:00,
2013-04-30 13:06:00,75.4,74.8,29.67,NNE,22,3.1,-999.0,98,-99.99,,,0.00,Acu-Link.com,2013-04-30 18:06:00,
2013-04-30 13:21:00,75.4,74.8,29.66,East,90,4.7,-999.0,98,-99.99,,,0.00,Acu-Link.com,2013-04-30 18:21:00,
2013-04-30 13:36:00,75.7,75.1,29.65,East,90,3.8,-999.0,98,-99.99,,,0.00,Acu-Link.com,2013-04-30 18:36:00,
2013-04-30 13:51:00,75.6,75.0,29.66,ENE,67,4.3,-999.0,98,-99.99,,,0.00,Acu-Link.com,2013-04-30 18:51:00,
2013-04-30 14:06:00,75.4,74.8,29.66,ESE,112,4.3,-999.0,98,-99.99,,,0.00,Acu-Link.com,2013-04-30 19:06:00,
2013-04-30 14:21:00,75.4,74.8,29.66,ESE,112,3.8,-999.0,98,-99.99,,,0.00,Acu-Link.com,2013-04-30 19:21:00,
2013-04-30 14:37:00,75.2,74.6,29.66,ENE,67,2.7,-999.0,98,-99.99,,,0.00,Acu-Link.com,2013-04-30 19:37:00,
2013-04-30 14:52:00,71.2,70.6,29.66,NE,45,8.3,-999.0,98,-99.99,,,0.01,Acu-Link.com,2013-04-30 19:52:00,
2013-04-30 15:07:00,69.1,68.5,29.67,East,90,5.1,-999.0,98,-99.99,,,0.01,Acu-Link.com,2013-04-30 20:07:00,
2013-04-30 15:22:00,68.7,68.1,29.66,ESE,112,1.6,-999.0,98,-99.99,,,0.04,Acu-Link.com,2013-04-30 20:22:00,
2013-04-30 15:38:00,68.7,68.1,29.67,SE,135,3.8,-999.0,98,-99.99,,,0.04,Acu-Link.com,2013-04-30 20:38:00,
2013-04-30 15:53:00,68.5,68.0,29.67,ENE,67,2.2,-999.0,98,-99.99,,,0.05,Acu-Link.com,2013-04-30 20:53:00,
2013-04-30 16:08:00,69.1,68.5,29.67,ENE,67,0.0,-999.0,98,-99.99,,,0.05,Acu-Link.com,2013-04-30 21:08:00,
2013-04-30 16:23:00,69.4,68.8,29.66,South,180,0.0,-999.0,98,-99.99,,,0.06,Acu-Link.com,2013-04-30 21:23:00,
2013-04-30 16:38:00,69.6,69.0,29.66,South,180,0.0,-999.0,98,-99.99,,,0.06,Acu-Link.com,2013-04-30 21:38:00,
2013-04-30 16:54:00,70.2,69.6,29.66,SW,225,0.0,-999.0,98,-99.99,,,0.06,Acu-Link.com,2013-04-30 21:54:00,
2013-04-30 17:09:00,70.5,69.9,29.65,East,90,2.2,-999.0,98,-99.99,,,0.06,Acu-Link.com,2013-04-30 22:09:00,
2013-04-30 17:24:00,70.5,69.9,29.65,NE,45,3.8,-999.0,98,-99.99,,,0.06,Acu-Link.com,2013-04-30 22:24:00,
2013-04-30 17:39:00,70.7,70.1,29.63,East,90,1.6,-999.0,98,-99.99,,,0.06,Acu-Link.com,2013-04-30 22:39:00,
2013-04-30 17:55:00,71.2,70.6,29.63,East,90,1.1,-999.0,98,-99.99,,,0.06,Acu-Link.com,2013-04-30 22:55:00,
2013-04-30 18:10:00,71.4,70.8,29.63,ENE,67,6.3,-999.0,98,-99.99,,,0.06,Acu-Link.com,2013-04-30 23:10:00,
2013-04-30 18:25:00,70.7,70.1,29.63,East,90,3.1,-999.0,98,-99.99,,,0.06,Acu-Link.com,2013-04-30 23:25:00,
2013-04-30 18:40:00,70.2,69.6,29.63,East,90,4.7,-999.0,98,-99.99,,,0.06,Acu-Link.com,2013-04-30 23:40:00,
2013-04-30 18:56:00,69.4,68.8,29.64,SSE,157,4.3,-999.0,98,-99.99,,,0.06,Acu-Link.com,2013-04-30 23:56:00,
2013-04-30 19:11:00,68.9,68.3,29.64,ENE,67,3.1,-999.0,98,-99.99,,,0.06,Acu-Link.com,2013-05-01 00:11:00,
2013-04-30 19:26:00,68.7,68.1,29.64,ESE,112,5.1,-999.0,98,-99.99,,,0.06,Acu-Link.com,2013-05-01 00:26:00,
2013-04-30 19:41:00,68.5,68.0,29.65,East,90,2.7,-999.0,98,-99.99,,,0.06,Acu-Link.com,2013-05-01 00:41:00,
2013-04-30 19:56:00,68.2,67.6,29.66,ENE,67,5.8,-999.0,98,-99.99,,,0.06,Acu-Link.com,2013-05-01 00:56:00,
2013-04-30 20:11:00,68.2,67.6,29.65,ESE,112,3.1,-999.0,98,-99.99,,,0.06,Acu-Link.com,2013-05-01 01:11:00,
2013-04-30 20:27:00,67.8,67.2,29.66,ENE,67,3.8,-999.0,98,-99.99,,,0.06,Acu-Link.com,2013-05-01 01:27:00,
2013-04-30 20:42:00,67.5,66.9,29.67,ENE,67,4.3,-999.0,98,-99.99,,,0.06,Acu-Link.com,2013-05-01 01:42:00,
2013-04-30 20:57:00,67.5,66.9,29.67,ESE,112,3.8,-999.0,98,-99.99,,,0.06,Acu-Link.com,2013-05-01 01:57:00,
2013-04-30 21:12:00,67.3,66.7,29.67,ENE,67,2.7,-999.0,98,-99.99,,,0.06,Acu-Link.com,2013-05-01 02:12:00,
2013-04-30 21:28:00,67.1,66.5,29.68,ESE,112,1.6,-999.0,98,-99.99,,,0.06,Acu-Link.com,2013-05-01 02:28:00,
2013-04-30 21:43:00,66.9,66.3,29.69,East,90,2.7,-999.0,98,-99.99,,,0.06,Acu-Link.com,2013-05-01 02:43:00,
2013-04-30 21:58:00,66.9,66.3,29.69,East,90,2.2,-999.0,98,-99.99,,,0.06,Acu-Link.com,2013-05-01 02:58:00,
2013-04-30 22:13:00,66.9,66.3,29.69,ENE,67,1.1,-999.0,98,-99.99,,,0.06,Acu-Link.com,2013-05-01 03:13:00,
2013-04-30 22:28:00,66.9,66.3,29.69,ENE,67,2.7,-999.0,98,-99.99,,,0.06,Acu-Link.com,2013-05-01 03:28:00,
2013-04-30 22:44:00,66.9,66.3,29.69,East,90,3.8,-999.0,98,-99.99,,,0.06,Acu-Link.com,2013-05-01 03:44:00,
2013-04-30 22:59:00,66.9,66.3,29.69,NE,45,2.2,-999.0,98,-99.99,,,0.06,Acu-Link.com,2013-05-01 03:59:00,
2013-04-30 23:14:00,66.7,66.2,29.68,ENE,67,2.2,-999.0,98,-99.99,,,0.07,Acu-Link.com,2013-05-01 04:14:00,
2013-04-30 23:30:00,66.6,66.0,29.68,East,90,3.8,-999.0,98,-99.99,,,0.14,Acu-Link.com,2013-05-01 04:30:00,
2013-04-30 23:45:00,66.4,65.8,29.68,ESE,112,3.8,-999.0,98,-99.99,,,0.14,Acu-Link.com,2013-05-01 04:45:00,